Time;durP1;ratioP1;P1;durP2;ratioP2;P2;SDS_P1;SDS_P2;PMS_P1;PMS_P2;Temp;Humidity;BMP_temperature;BMP_pressure;BME280_temperature;BME280_humidity;BME280_pressure;Samples;Min_cycle;Max_cycle;Signal;HPM_P1;HPM_P2
2023/07/06 00:02:05;;;;;;;22.30;17.60;;;;;;;30.40;72.10;100845.91;5064345;28;65820;-52
2023/07/06 00:04:37;;;;;;;26.02;19.08;;;;;;;30.39;71.78;100846.13;5056838;28;69960;-50
2023/07/06 00:07:08;;;;;;;19.35;17.25;;;;;;;30.40;71.67;100853.22;5058305;28;66035;-49
2023/07/06 00:09:39;;;;;;;18.20;16.52;;;;;;;30.39;71.80;100854.22;5049458;28;69895;-50
2023/07/06 00:12:11;;;;;;;18.97;16.63;;;;;;;30.40;71.79;100854.03;5057449;28;66410;-50
2023/07/06 00:14:42;;;;;;;17.98;16.23;;;;;;;30.39;72.06;100851.53;5058575;28;69097;-49
2023/07/06 00:17:16;;;;;;;23.15;17.05;;;;;;;30.22;72.00;100835.81;5059521;28;65857;-49
2023/07/06 00:19:48;;;;;;;18.30;15.30;;;;;;;30.43;71.76;100863.59;5058023;28;69674;-49
2023/07/06 00:22:19;;;;;;;17.05;15.48;;;;;;;30.42;71.59;100861.91;5059173;28;66840;-49
2023/07/06 00:24:53;;;;;;;18.17;16.13;;;;;;;30.44;71.40;100865.25;5047791;28;43110;-48
2023/07/06 00:27:25;;;;;;;18.77;15.77;;;;;;;30.44;72.10;100857.13;5055090;28;66081;-48
2023/07/06 00:30:03;;;;;;;17.88;15.35;;;;;;;30.41;71.58;100849.44;5058494;28;70172;-49
2023/07/06 00:32:36;;;;;;;17.35;15.52;;;;;;;30.33;71.50;100842.41;5056200;28;65560;-50
2023/07/06 00:35:10;;;;;;;18.02;15.80;;;;;;;30.47;71.98;100859.38;5057558;28;69203;-49
2023/07/06 00:37:42;;;;;;;18.02;15.50;;;;;;;30.43;71.53;100855.47;5057960;28;65410;-50
2023/07/06 00:40:13;;;;;;;15.77;14.43;;;;;;;30.43;72.12;100858.19;5059459;28;69652;-50
2023/07/06 00:42:44;;;;;;;18.80;16.23;;;;;;;30.46;72.01;100852.34;5043207;28;65391;-52
2023/07/06 00:45:16;;;;;;;15.75;14.13;;;;;;;30.46;71.95;100863.16;5065022;28;69948;-49
2023/07/06 00:47:51;;;;;;;15.70;14.20;;;;;;;29.89;71.76;100765.63;5034379;28;66138;-49
2023/07/06 00:50:28;;;;;;;20.90;15.23;;;;;;;29.44;72.01;100692.63;5051734;28;69896;-48
2023/07/06 00:53:15;;;;;;;16.42;14.73;;;;;;;29.91;72.03;100784.34;5056368;28;66475;-48
2023/07/06 00:55:47;;;;;;;15.18;13.63;;;;;;;30.48;71.71;100863.78;5036605;28;70192;-50
2023/07/06 00:58:30;;;;;;;17.30;14.55;;;;;;;30.03;71.31;100793.44;5058163;28;65983;-48
2023/07/06 01:01:05;;;;;;;15.43;13.88;;;;;;;29.89;71.46;100770.22;5061722;28;69428;-49
2023/07/06 01:03:44;;;;;;;15.48;13.70;;;;;;;30.48;71.72;100861.06;5053867;28;65768;-49
2023/07/06 01:06:20;;;;;;;15.23;13.70;;;;;;;30.57;71.40;100865.16;5060564;28;70437;-49
2023/07/06 01:08:52;;;;;;;18.40;13.23;;;;;;;30.49;71.46;100851.88;5033730;28;65388;-50
2023/07/06 01:11:24;;;;;;;14.95;13.63;;;;;;;30.59;71.47;100873.91;5046768;28;70726;-49
2023/07/06 01:13:58;;;;;;;13.95;12.57;;;;;;;30.60;71.13;100870.13;5062315;28;66183;-54
2023/07/06 01:16:42;;;;;;;13.32;12.15;;;;;;;29.97;71.34;100776.19;5063013;28;70368;-49
2023/07/06 01:19:34;;;;;;;13.50;12.38;;;;;;;30.39;71.81;100846.13;5062418;28;66598;-49
2023/07/06 01:22:22;;;;;;;13.30;12.30;;;;;;;30.58;71.53;100866.81;5056280;28;69724;-50
2023/07/06 01:25:02;;;;;;;12.50;11.40;;;;;;;30.63;71.28;100880.53;5030694;28;66563;-48
2023/07/06 01:28:05;;;;;;;12.75;11.65;;;;;;;30.57;71.40;100888.69;5060528;28;70427;-49
2023/07/06 01:31:13;;;;;;;12.30;11.20;;;;;;;30.54;71.55;100887.25;5061261;28;66812;-50
2023/07/06 01:34:35;;;;;;;12.85;11.43;;;;;;;30.49;71.35;100884.38;5060038;28;69635;-49
2023/07/06 01:37:24;;;;;;;11.75;10.88;;;;;;;30.65;71.50;100886.56;5018960;28;65587;-50
2023/07/06 01:39:57;;;;;;;11.35;10.32;;;;;;;30.70;70.87;100881.31;5062758;28;69256;-49
2023/07/06 01:42:34;;;;;;;11.27;10.48;;;;;;;30.25;70.85;100802.91;5042958;28;66007;-49
2023/07/06 01:45:16;;;;;;;11.45;10.50;;;;;;;30.40;70.68;100826.16;5059120;28;70434;-49
2023/07/06 01:47:58;;;;;;;;;;;;;;;30.41;72.33;100887.34;5053599;28;66773;-49
2023/07/06 01:51:25;;;;;;;10.80;9.98;;;;;;;30.63;71.46;100887.81;5041825;28;70678;-49
2023/07/06 01:54:06;;;;;;;10.50;9.75;;;;;;;30.21;70.98;100798.94;4997166;28;65184;-50
2023/07/06 01:56:54;;;;;;;10.85;10.10;;;;;;;30.22;70.96;100800.63;5035833;28;70531;-49
2023/07/06 01:59:30;;;;;;;10.43;9.52;;;;;;;30.87;70.97;100902.47;5037775;28;65312;-50
2023/07/06 02:02:07;;;;;;;10.30;9.23;;;;;;;30.39;70.43;100819.88;5056035;28;70403;-49
2023/07/06 02:04:43;;;;;;;10.20;9.60;;;;;;;30.91;70.45;100895.56;5038448;28;66900;-50
2023/07/06 02:07:18;;;;;;;9.93;9.15;;;;;;;30.82;70.44;100883.34;5057399;28;69729;-49
2023/07/06 02:09:54;;;;;;;10.82;9.45;;;;;;;30.94;70.45;100897.84;5056926;28;67049;-50
2023/07/06 02:12:25;;;;;;;10.13;9.27;;;;;;;30.98;70.53;100904.47;5052926;28;70812;-49
2023/07/06 02:14:57;;;;;;;9.95;9.25;;;;;;;30.99;70.56;100897.19;5058281;28;66482;-48
2023/07/06 02:17:30;;;;;;;9.20;8.52;;;;;;;31.00;70.12;100896.13;5057206;28;70022;-50
2023/07/06 02:20:01;;;;;;;10.27;9.20;;;;;;;30.55;70.31;100821.22;5058480;28;66323;-49
2023/07/06 02:22:34;;;;;;;8.25;7.75;;;;;;;31.02;70.61;100892.16;5057695;28;71144;-49
2023/07/06 02:25:07;;;;;;;9.40;8.70;;;;;;;31.08;69.89;100907.50;5060770;28;66663;-50
2023/07/06 02:27:38;;;;;;;8.45;7.95;;;;;;;31.12;70.04;100905.19;5055979;28;70551;-51
2023/07/06 02:30:10;;;;;;;8.55;8.05;;;;;;;30.97;69.97;100885.72;5057983;28;66335;-49
2023/07/06 02:32:42;;;;;;;8.18;7.68;;;;;;;31.13;69.89;100896.00;5036570;28;70160;-50
2023/07/06 02:35:15;;;;;;;8.63;8.00;;;;;;;31.18;69.70;100907.03;5060050;28;65457;-50
2023/07/06 02:37:49;;;;;;;8.88;8.20;;;;;;;31.18;69.69;100909.72;5056470;28;70018;-49
2023/07/06 02:40:20;;;;;;;9.13;8.52;;;;;;;31.21;69.90;100913.88;5043292;28;64586;-51
2023/07/06 02:42:52;;;;;;;8.98;7.88;;;;;;;30.93;69.71;100864.50;5059236;28;70040;-49
2023/07/06 02:45:23;;;;;;;8.23;7.63;;;;;;;31.13;69.52;100891.41;5044947;28;65109;-50
2023/07/06 02:47:54;;;;;;;8.20;7.68;;;;;;;31.28;69.62;100906.50;5041631;28;70112;-49
2023/07/06 02:50:27;;;;;;;7.70;7.30;;;;;;;31.09;69.74;100873.97;5060965;28;66964;-50
2023/07/06 02:53:01;;;;;;;8.27;7.75;;;;;;;31.33;69.60;100906.66;5034906;28;70529;-50
2023/07/06 02:55:32;;;;;;;7.93;7.43;;;;;;;31.34;69.55;100908.31;5059880;28;66256;-50
2023/07/06 02:58:04;;;;;;;6.97;6.60;;;;;;;31.41;69.25;100902.88;5050426;28;69202;-49
2023/07/06 03:00:35;;;;;;;7.85;6.95;;;;;;;31.42;69.39;100899.09;5033350;28;66457;-49
2023/07/06 03:03:08;;;;;;;7.87;7.37;;;;;;;31.27;69.11;100881.28;5058552;28;70281;-50
2023/07/06 03:05:39;;;;;;;7.90;7.32;;;;;;;31.46;69.25;100895.75;5062320;28;65977;-50
2023/07/06 03:08:11;;;;;;;7.40;7.00;;;;;;;31.43;69.32;100888.06;5068845;28;70200;-50
2023/07/06 03:10:46;;;;;;;7.32;6.82;;;;;;;31.41;69.26;100876.59;5044025;28;66254;-49
2023/07/06 03:13:21;;;;;;;8.00;7.20;;;;;;;31.55;69.06;100888.97;5060080;28;70513;-49
2023/07/06 03:15:58;;;;;;;6.80;6.35;;;;;;;31.52;68.83;100870.44;5056701;28;65674;-48
2023/07/06 03:18:33;;;;;;;7.15;6.75;;;;;;;31.45;69.05;100866.94;5042959;28;70119;-49
2023/07/06 03:21:04;;;;;;;6.63;6.22;;;;;;;31.59;68.85;100882.06;5060513;28;65705;-49
2023/07/06 03:23:38;;;;;;;7.30;6.78;;;;;;;31.56;68.52;100871.63;5062184;28;69763;-48
2023/07/06 03:26:09;;;;;;;7.10;6.50;;;;;;;31.47;68.67;100858.59;5064074;28;65450;-49
2023/07/06 03:28:41;;;;;;;6.73;6.33;;;;;;;31.68;68.70;100887.16;5058075;28;69406;-48
2023/07/06 03:31:22;;;;;;;8.98;6.93;;;;;;;31.67;68.81;100883.63;5051375;28;66391;-49
2023/07/06 03:33:53;;;;;;;7.22;6.72;;;;;;;31.69;68.72;100883.41;5042953;28;69804;-50
2023/07/06 03:36:25;;;;;;;7.10;6.65;;;;;;;31.69;68.29;100884.22;5062404;28;66484;-49
2023/07/06 03:38:57;;;;;;;6.43;6.03;;;;;;;31.63;68.52;100862.63;5059413;28;69930;-50
2023/07/06 03:41:28;;;;;;;6.75;6.35;;;;;;;31.77;68.28;100886.63;5035789;28;66314;-49
2023/07/06 03:43:59;;;;;;;6.85;6.35;;;;;;;31.69;68.18;100861.69;5063952;28;70053;-49
2023/07/06 03:46:34;;;;;;;6.78;6.25;;;;;;;31.79;68.34;100872.88;5059531;28;65480;-50
2023/07/06 03:49:11;;;;;;;7.55;7.03;;;;;;;31.81;68.08;100876.16;5058080;28;70208;-48
2023/07/06 03:51:47;;;;;;;6.32;6.03;;;;;;;31.84;67.89;100864.84;5059940;28;65627;-50
2023/07/06 03:54:19;;;;;;;6.85;6.45;;;;;;;31.87;68.07;100864.38;5059489;28;69595;-49
2023/07/06 03:56:53;;;;;;;6.55;6.07;;;;;;;31.87;68.04;100852.72;5040961;28;66074;-48
2023/07/06 03:59:27;;;;;;;7.43;6.75;;;;;;;31.90;67.90;100850.41;5059841;28;70539;-49
2023/07/06 04:02:01;;;;;;;6.50;6.10;;;;;;;31.94;67.92;100838.06;5058154;28;66546;-48
2023/07/06 04:04:36;;;;;;;7.30;6.70;;;;;;;31.96;67.79;100841.38;5060106;28;70075;-49
2023/07/06 04:07:07;;;;;;;7.28;6.88;;;;;;;31.82;67.42;100800.00;5059315;28;66793;-48
2023/07/06 04:09:39;;;;;;;8.15;7.57;;;;;;;32.01;67.71;100837.94;5059412;28;70869;-48
2023/07/06 04:12:13;;;;;;;7.35;6.95;;;;;;;32.03;67.60;100831.25;5057743;28;65907;-48
2023/07/06 04:14:44;;;;;;;8.32;7.72;;;;;;;32.08;67.50;100837.88;5058652;28;70180;-48
2023/07/06 04:17:16;;;;;;;8.18;7.55;;;;;;;32.09;67.41;100834.91;5049521;28;66001;-48
2023/07/06 04:19:49;;;;;;;9.60;8.80;;;;;;;32.12;67.54;100828.22;5067166;28;69618;-48
2023/07/06 04:22:20;;;;;;;8.45;7.82;;;;;;;32.14;67.29;100831.53;5041434;28;66627;-48
2023/07/06 04:24:52;;;;;;;8.18;7.65;;;;;;;32.13;67.38;100821.75;5061317;28;69038;-49
2023/07/06 04:27:25;;;;;;;8.90;8.15;;;;;;;32.16;67.35;100832.13;5062241;28;65410;-50
2023/07/06 04:29:57;;;;;;;8.20;7.70;;;;;;;32.19;67.39;100837.09;5063064;28;70227;-49
2023/07/06 04:32:31;;;;;;;8.57;7.87;;;;;;;31.68;67.70;100752.41;5064390;28;65323;-48
2023/07/06 04:35:06;;;;;;;8.48;7.85;;;;;;;32.20;67.15;100825.16;5060743;28;70421;-50
2023/07/06 04:37:37;;;;;;;8.30;7.80;;;;;;;32.23;66.87;100828.28;5061517;28;65236;-49
2023/07/06 04:40:13;;;;;;;8.35;7.85;;;;;;;31.78;67.07;100778.97;5061648;28;69637;-49
2023/07/06 04:42:51;;;;;;;8.25;7.75;;;;;;;31.25;66.68;100657.63;5062128;28;66706;-49
2023/07/06 04:45:26;;;;;;;8.65;8.07;;;;;;;32.32;66.80;100825.19;5065780;28;70255;-49
2023/07/06 04:48:00;;;;;;;8.35;7.85;;;;;;;32.27;66.76;100806.91;5061939;28;65739;-49
2023/07/06 04:50:32;;;;;;;8.13;7.55;;;;;;;32.34;66.75;100820.38;5063045;28;69956;-48
2023/07/06 04:53:07;;;;;;;9.43;8.65;;;;;;;32.36;66.72;100818.28;5061825;28;66374;-48
2023/07/06 04:55:38;;;;;;;9.18;8.35;;;;;;;32.29;66.96;100807.53;5062913;28;70882;-49
2023/07/06 04:58:11;;;;;;;9.33;8.53;;;;;;;32.27;66.58;100801.50;5063141;28;66477;-49
2023/07/06 05:00:45;;;;;;;8.23;7.65;;;;;;;32.35;66.71;100805.75;5060490;28;69708;-49
2023/07/06 05:03:17;;;;;;;9.65;8.75;;;;;;;32.38;66.46;100811.53;5063019;28;66552;-49
2023/07/06 05:05:48;;;;;;;8.90;8.13;;;;;;;32.39;66.69;100806.94;5062618;28;69676;-50
2023/07/06 05:08:21;;;;;;;9.80;8.47;;;;;;;32.37;66.35;100809.88;5059397;28;65735;-48
2023/07/06 05:10:54;;;;;;;9.63;8.88;;;;;;;32.41;66.54;100805.66;5059887;28;70733;-49
2023/07/06 05:13:26;;;;;;;8.80;8.30;;;;;;;32.41;66.79;100808.38;5035230;28;65807;-48
2023/07/06 05:15:58;;;;;;;9.35;8.48;;;;;;;32.41;66.58;100800.22;5061829;28;70015;-48
2023/07/06 05:18:31;;;;;;;8.65;7.97;;;;;;;32.41;66.52;100788.53;5062739;28;66591;-49
2023/07/06 05:21:02;;;;;;;9.35;8.50;;;;;;;32.41;66.44;100789.38;5056742;28;70504;-47
2023/07/06 05:23:34;;;;;;;9.98;8.05;;;;;;;32.46;66.41;100784.09;5057156;28;66197;-48
2023/07/06 05:26:09;;;;;;;8.25;7.75;;;;;;;32.44;66.61;100783.47;5059562;28;70425;-48
2023/07/06 05:28:41;;;;;;;8.30;7.80;;;;;;;32.45;66.66;100779.69;5061210;28;65444;-48
2023/07/06 05:31:12;;;;;;;8.77;8.18;;;;;;;32.44;66.37;100772.59;5062567;28;69419;-46
2023/07/06 05:33:46;;;;;;;8.35;7.85;;;;;;;32.45;66.10;100768.00;5061863;28;65845;-49
2023/07/06 05:36:17;;;;;;;8.18;7.43;;;;;;;32.51;66.36;100766.25;5062352;28;70820;-50
2023/07/06 05:38:48;;;;;;;8.25;7.75;;;;;;;32.51;66.12;100760.84;5060316;28;66259;-48
2023/07/06 05:41:20;;;;;;;8.43;7.88;;;;;;;32.47;66.10;100755.88;5060966;28;69369;-49
2023/07/06 05:43:52;;;;;;;8.32;7.70;;;;;;;32.41;66.24;100745.91;5060129;28;65336;-49
2023/07/06 05:46:26;;;;;;;8.50;7.95;;;;;;;32.47;66.26;100739.59;5060688;28;70234;-48
2023/07/06 05:48:58;;;;;;;8.88;8.05;;;;;;;32.41;66.05;100728.81;5048793;28;66160;-52
2023/07/06 05:51:29;;;;;;;7.72;7.28;;;;;;;32.45;66.15;100722.66;5060061;28;70611;-48
2023/07/06 05:54:01;;;;;;;8.55;7.95;;;;;;;32.57;65.84;100727.31;5061820;28;66256;-49
2023/07/06 05:56:35;;;;;;;8.30;7.80;;;;;;;32.66;65.90;100731.34;5060652;28;69677;-48
2023/07/06 05:59:08;;;;;;;8.05;7.63;;;;;;;32.68;65.83;100715.59;5060257;28;66389;-49
2023/07/06 06:01:41;;;;;;;8.93;8.32;;;;;;;32.69;65.85;100714.56;5060239;28;70781;-48
2023/07/06 06:04:13;;;;;;;8.85;8.35;;;;;;;32.70;65.91;100705.34;5062850;28;65739;-49
2023/07/06 06:06:53;;;;;;;8.75;8.25;;;;;;;32.27;65.52;100633.22;5062297;28;69849;-48
2023/07/06 06:09:26;;;;;;;8.93;8.32;;;;;;;32.16;65.68;100618.56;5061236;28;66795;-48
2023/07/06 06:11:57;;;;;;;8.82;8.32;;;;;;;32.74;65.61;100698.38;5052163;28;69487;-48
2023/07/06 06:14:29;;;;;;;8.73;8.13;;;;;;;32.69;65.87;100698.28;5061412;28;65116;-48
2023/07/06 06:17:00;;;;;;;9.02;8.52;;;;;;;32.70;65.56;100683.63;5062760;28;69996;-49
2023/07/06 06:19:40;;;;;;;9.15;8.65;;;;;;;32.21;64.93;100598.88;5061205;28;65930;-49
2023/07/06 06:22:16;;;;;;;9.35;8.75;;;;;;;32.54;65.90;100662.59;5059647;28;70717;-48
2023/07/06 06:24:48;;;;;;;8.65;8.15;;;;;;;32.71;65.81;100686.13;5057434;28;66680;-48
2023/07/06 06:27:20;;;;;;;9.32;8.65;;;;;;;32.70;65.76;100672.75;5060115;28;70354;-49
2023/07/06 06:29:53;;;;;;;8.88;8.38;;;;;;;32.71;65.58;100674.44;5041514;28;65794;-49
2023/07/06 06:32:29;;;;;;;8.77;8.25;;;;;;;32.74;65.63;100667.69;5058047;28;69767;-48
2023/07/06 06:35:02;;;;;;;9.32;8.55;;;;;;;32.71;65.75;100660.84;5061450;28;66135;-49
2023/07/06 06:37:33;;;;;;;7.88;7.47;;;;;;;32.74;65.57;100662.25;5060537;28;70547;-48
2023/07/06 06:40:06;;;;;;;8.52;8.00;;;;;;;32.70;65.90;100662.72;5043454;28;66551;-47
2023/07/06 06:42:39;;;;;;;7.75;7.25;;;;;;;32.61;65.73;100647.03;5061963;28;71069;-49
2023/07/06 06:45:12;;;;;;;8.70;8.07;;;;;;;32.60;65.80;100645.41;5061126;28;66022;-49
2023/07/06 06:47:46;;;;;;;8.25;7.65;;;;;;;32.75;65.79;100675.59;5059834;28;70602;-48
2023/07/06 06:50:19;;;;;;;8.77;8.05;;;;;;;32.69;65.88;100665.69;5060327;28;66088;-48
2023/07/06 06:52:52;;;;;;;8.48;7.78;;;;;;;32.65;65.89;100659.06;5061745;28;70358;-48
2023/07/06 06:55:23;;;;;;;7.25;6.85;;;;;;;32.64;65.71;100646.56;5061254;28;66637;-48
2023/07/06 06:57:55;;;;;;;7.63;6.95;;;;;;;32.65;66.04;100651.75;5048934;28;69378;-49
2023/07/06 07:00:26;;;;;;;7.72;7.15;;;;;;;32.47;66.09;100616.59;5050917;28;65370;-47
2023/07/06 07:02:58;;;;;;;7.25;6.75;;;;;;;32.56;66.26;100634.16;5042134;28;69685;-47
2023/07/06 07:05:29;;;;;;;;;;;;;;;32.39;66.68;100639.44;5062919;28;65962;-48
2023/07/06 07:08:01;;;;;;;7.15;6.60;;;;;;;32.63;66.13;100631.34;5043024;28;69125;-50
2023/07/06 07:10:32;;;;;;;6.50;6.10;;;;;;;32.61;66.09;100625.31;5061888;28;66362;-49
2023/07/06 07:13:04;;;;;;;6.80;6.28;;;;;;;32.68;65.88;100625.97;5067715;28;67822;-48
2023/07/06 07:15:35;;;;;;;6.35;6.05;;;;;;;32.64;66.11;100616.69;5043863;28;65884;-49
2023/07/06 07:18:08;;;;;;;6.90;6.50;;;;;;;32.60;66.12;100612.81;5058115;28;69707;-48
2023/07/06 07:20:39;;;;;;;6.35;5.85;;;;;;;32.64;66.13;100613.97;5061565;28;66345;-49
2023/07/06 07:23:11;;;;;;;6.38;5.82;;;;;;;32.62;66.15;100599.78;5059044;28;69591;-48
2023/07/06 07:25:42;;;;;;;6.20;5.80;;;;;;;32.61;66.13;100604.41;5061195;28;66521;-47
2023/07/06 07:28:16;;;;;;;5.78;5.38;;;;;;;32.64;66.08;100603.09;5062228;28;70472;-49
2023/07/06 07:30:58;;;;;;;6.07;5.70;;;;;;;32.47;66.16;100598.41;5042644;28;65365;-49
2023/07/06 07:33:30;;;;;;;5.78;5.47;;;;;;;32.64;66.20;100619.41;5062823;28;69934;-48
2023/07/06 07:36:03;;;;;;;5.72;5.32;;;;;;;32.17;66.02;100544.22;5057781;28;65371;-47
2023/07/06 07:38:56;;;;;;;5.85;5.45;;;;;;;32.58;66.56;100598.63;5037792;28;70190;-49
2023/07/06 07:41:37;;;;;;;5.63;5.32;;;;;;;32.59;66.11;100598.38;5056977;28;65802;-48
2023/07/06 07:44:38;;;;;;;4.75;4.47;;;;;;;32.61;66.60;100603.59;5023937;28;70656;-48
2023/07/06 07:47:21;;;;;;;5.18;4.93;;;;;;;32.51;66.36;100587.06;5017353;28;65832;-48
2023/07/06 07:49:57;;;;;;;5.07;4.78;;;;;;;31.99;66.20;100509.09;5020871;28;70146;-48
2023/07/06 07:52:37;;;;;;;5.05;4.55;;;;;;;32.59;66.37;100611.94;5013749;28;66635;-48
2023/07/06 07:55:17;;;;;;;4.60;4.30;;;;;;;32.60;66.38;100601.94;5016938;28;69885;-47
2023/07/06 07:57:56;;;;;;;5.25;4.85;;;;;;;32.62;66.29;100605.22;5000793;28;65929;-48
2023/07/06 08:00:48;;;;;;;4.15;3.95;;;;;;;32.48;66.15;100582.94;5018761;28;70622;-47
2023/07/06 08:03:21;;;;;;;5.25;4.85;;;;;;;32.59;66.38;100595.66;5061066;28;66456;-49
2023/07/06 08:05:54;;;;;;;5.10;4.80;;;;;;;32.06;66.39;100515.22;5055743;28;70583;-49
2023/07/06 08:08:26;;;;;;;4.85;4.40;;;;;;;32.51;66.05;100573.47;5061291;28;66672;-48
2023/07/06 08:11:03;;;;;;;4.43;4.13;;;;;;;32.04;66.42;100496.47;5060470;28;69648;-48
2023/07/06 08:13:35;;;;;;;4.18;3.97;;;;;;;32.04;66.82;100496.47;5057504;28;66413;-47
2023/07/06 08:16:06;;;;;;;5.10;4.80;;;;;;;32.59;66.54;100582.09;5059235;28;70448;-48
2023/07/06 08:18:41;;;;;;;5.18;4.88;;;;;;;32.45;66.65;100562.47;5057485;28;65592;-47
2023/07/06 08:21:13;;;;;;;5.00;4.70;;;;;;;32.57;66.74;100580.66;5064950;28;70372;-48
2023/07/06 08:24:04;;;;;;;;;;;;;;;32.26;67.70;100563.69;5035383;28;65774;-48
2023/07/06 08:26:36;;;;;;;4.75;4.45;;;;;;;32.51;67.06;100560.72;5058869;28;70357;-48
2023/07/06 08:29:07;;;;;;;4.13;3.92;;;;;;;32.47;66.75;100527.81;5059368;28;66281;-48
2023/07/06 08:31:39;;;;;;;5.10;4.80;;;;;;;32.59;66.61;100548.69;5057175;28;69108;-48
2023/07/06 08:34:12;;;;;;;;;;;;;;;32.30;67.67;100559.44;5059628;28;66233;-48
2023/07/06 08:36:44;;;;;;;4.88;4.57;;;;;;;31.92;66.87;100454.13;5056564;28;69533;-48
2023/07/06 08:39:16;;;;;;;4.47;4.25;;;;;;;32.16;66.73;100490.22;5054655;28;66467;-48
2023/07/06 08:41:49;;;;;;;4.93;4.68;;;;;;;32.01;67.03;100486.09;5058365;28;70117;-49
2023/07/06 08:44:23;;;;;;;4.70;4.50;;;;;;;32.59;66.78;100564.97;5058372;28;66430;-48
2023/07/06 08:46:55;;;;;;;;;;;;;;;32.30;67.91;100564.06;5060604;28;70368;-48
2023/07/06 08:49:32;;;;;;;5.13;4.82;;;;;;;32.51;66.83;100559.91;5056683;28;66217;-48
2023/07/06 08:52:06;;;;;;;5.32;4.93;;;;;;;32.00;66.97;100478.19;5035219;28;70136;-50
2023/07/06 08:54:50;;;;;;;4.93;4.63;;;;;;;32.02;67.22;100478.78;5058416;28;66988;-48
2023/07/06 08:57:28;;;;;;;5.20;4.90;;;;;;;31.98;67.01;100461.31;5057087;28;71291;-47
2023/07/06 09:00:00;;;;;;;5.55;5.15;;;;;;;32.40;66.96;100537.13;5058412;28;65461;-48
2023/07/06 09:02:36;;;;;;;5.55;5.18;;;;;;;32.55;67.30;100566.53;5055993;28;69801;-48
2023/07/06 09:05:14;;;;;;;4.65;4.35;;;;;;;32.53;67.03;100571.38;5055822;28;67266;-48
2023/07/06 09:07:49;;;;;;;5.72;5.40;;;;;;;32.58;66.83;100560.63;5057823;28;70465;-48
2023/07/06 09:10:26;;;;;;;5.80;5.38;;;;;;;32.39;67.21;100533.56;5058670;28;66542;-48
2023/07/06 09:13:22;;;;;;;5.32;5.03;;;;;;;32.41;67.54;100555.88;5059980;28;70657;-48
2023/07/06 09:16:04;;;;;;;4.95;4.65;;;;;;;32.09;67.40;100497.63;5051992;28;66040;-48
2023/07/06 09:18:37;;;;;;;5.28;4.97;;;;;;;32.57;67.43;100580.66;5040180;28;70604;-48
2023/07/06 09:21:09;;;;;;;5.20;4.90;;;;;;;32.56;67.39;100588.00;5043932;28;66850;-49
2023/07/06 09:23:47;;;;;;;4.72;4.53;;;;;;;32.15;67.40;100523.81;5061171;28;70672;-47
2023/07/06 09:26:35;;;;;;;5.57;4.93;;;;;;;31.98;67.79;100529.13;5042596;28;66300;-48
2023/07/06 09:29:32;;;;;;;6.05;5.35;;;;;;;32.43;67.76;100602.63;5056287;28;69993;-48
2023/07/06 09:32:19;;;;;;;4.95;4.65;;;;;;;31.98;67.64;100524.56;5055142;28;66890;-48
2023/07/06 09:35:08;;;;;;;4.68;4.38;;;;;;;32.47;67.59;100614.69;5050255;28;69300;-48
2023/07/06 09:37:51;;;;;;;4.90;4.60;;;;;;;32.51;67.76;100603.34;5060507;28;66524;-48
2023/07/06 09:40:30;;;;;;;4.40;4.15;;;;;;;31.91;67.54;100504.84;5057116;28;71366;-47
2023/07/06 09:43:02;;;;;;;5.40;4.80;;;;;;;32.52;67.56;100607.75;5032479;28;66956;-48
2023/07/06 09:45:34;;;;;;;5.18;4.88;;;;;;;32.45;67.74;100586.91;5058184;28;69376;-48
2023/07/06 09:48:17;;;;;;;5.07;4.78;;;;;;;32.38;67.66;100583.50;5057471;28;65554;-48
2023/07/06 09:50:52;;;;;;;4.22;4.00;;;;;;;32.19;67.86;100554.84;5056501;28;70661;-48
2023/07/06 09:53:29;;;;;;;5.10;4.70;;;;;;;31.98;67.55;100529.97;5057129;28;66946;-47
2023/07/06 09:56:02;;;;;;;4.72;4.15;;;;;;;32.05;67.75;100527.97;5055954;28;70397;-47
2023/07/06 09:58:35;;;;;;;4.95;4.47;;;;;;;32.51;67.54;100612.31;5057217;28;65854;-49
2023/07/06 10:01:33;;;;;;;4.72;4.43;;;;;;;31.93;67.93;100532.56;5057781;28;70559;-49
2023/07/06 10:04:32;;;;;;;4.88;4.10;;;;;;;32.40;67.95;100622.13;5058213;28;66383;-48
2023/07/06 10:07:23;;;;;;;4.13;3.83;;;;;;;32.38;67.95;100623.41;5055732;28;69252;-47
2023/07/06 10:10:02;;;;;;;4.63;4.32;;;;;;;32.49;67.50;100623.44;5056462;28;66516;-48
2023/07/06 10:12:53;;;;;;;3.88;3.60;;;;;;;31.94;68.13;100545.06;5037970;28;70392;-50
2023/07/06 10:15:33;;;;;;;4.43;4.15;;;;;;;32.48;67.79;100626.38;5055357;28;66619;-49
2023/07/06 10:18:36;;;;;;;4.20;3.90;;;;;;;32.30;67.79;100624.59;5056166;28;70702;-48
2023/07/06 10:21:19;;;;;;;4.40;4.00;;;;;;;31.98;68.15;100562.53;5056481;28;65983;-48
2023/07/06 10:24:20;;;;;;;5.15;4.82;;;;;;;32.39;67.95;100644.06;5055187;28;70448;-49
2023/07/06 10:26:59;;;;;;;4.10;3.90;;;;;;;31.84;67.73;100544.78;5026156;28;66208;-49
2023/07/06 10:29:45;;;;;;;4.70;4.30;;;;;;;31.85;68.02;100556.47;5056274;28;70060;-48
2023/07/06 10:32:41;;;;;;;4.28;4.07;;;;;;;32.31;68.14;100672.38;5053460;28;66246;-48
2023/07/06 10:35:27;;;;;;;5.07;4.55;;;;;;;31.79;67.93;100563.66;5057184;28;70898;-49
2023/07/06 10:37:59;;;;;;;5.15;4.82;;;;;;;32.33;67.72;100653.97;5056903;28;66822;-49
2023/07/06 10:40:30;;;;;;;;;;;;;;;32.15;68.68;100675.78;5055329;28;70297;-50
2023/07/06 10:43:16;;;;;;;5.05;4.65;;;;;;;32.25;68.23;100686.88;5054567;28;65341;-48
2023/07/06 10:45:56;;;;;;;4.70;4.30;;;;;;;32.34;68.16;100698.22;5057628;28;70603;-49
2023/07/06 10:48:30;;;;;;;4.68;4.45;;;;;;;32.39;67.73;100690.22;5057729;28;66691;-48
2023/07/06 10:51:07;;;;;;;4.85;4.55;;;;;;;32.39;68.02;100701.88;5061012;28;69902;-47
2023/07/06 10:53:44;;;;;;;5.57;5.22;;;;;;;31.72;67.96;100618.00;5056872;28;66531;-48
2023/07/06 10:56:23;;;;;;;4.65;4.28;;;;;;;32.24;67.96;100706.97;5057932;28;69415;-49
2023/07/06 10:58:55;;;;;;;5.10;4.80;;;;;;;32.37;67.81;100733.03;5059843;28;66717;-49
2023/07/06 11:01:40;;;;;;;5.20;4.80;;;;;;;31.76;67.97;100646.31;5059597;28;69704;-49
2023/07/06 11:04:43;;;;;;;5.18;4.78;;;;;;;32.23;68.33;100732.44;5061659;28;65896;-47
2023/07/06 11:07:54;;;;;;;4.90;4.50;;;;;;;32.16;68.31;100731.72;5058743;28;69923;-49
2023/07/06 11:10:51;;;;;;;4.78;4.47;;;;;;;32.25;67.88;100727.59;5017736;28;66955;-50
2023/07/06 11:13:25;;;;;;;4.95;4.65;;;;;;;32.28;67.99;100736.09;5017803;28;70042;-48
2023/07/06 11:16:04;;;;;;;4.88;4.57;;;;;;;31.29;68.02;100580.25;5055278;28;67174;-49
2023/07/06 11:18:46;;;;;;;6.75;4.30;;;;;;;32.21;67.91;100740.00;5061739;28;70517;-49
2023/07/06 11:21:17;;;;;;;4.85;4.45;;;;;;;32.25;68.13;100757.47;5059507;28;66362;-49
2023/07/06 11:23:57;;;;;;;4.50;4.20;;;;;;;32.10;68.12;100740.81;5045607;28;70524;-49
2023/07/06 11:26:47;;;;;;;4.95;4.60;;;;;;;32.13;68.18;100762.03;5056479;28;65960;-50
2023/07/06 11:29:29;;;;;;;5.07;4.78;;;;;;;32.20;68.20;100771.72;5059968;28;70656;-48
2023/07/06 11:32:09;;;;;;;4.47;4.22;;;;;;;32.21;68.37;100759.81;5060227;28;66325;-48
2023/07/06 11:35:11;;;;;;;7.40;4.10;;;;;;;32.16;68.01;100764.28;5058511;28;70149;-48
2023/07/06 11:38:01;;;;;;;4.90;4.60;;;;;;;31.50;68.47;100674.63;5060045;28;66182;-48
2023/07/06 11:41:10;;;;;;;4.57;4.15;;;;;;;32.09;68.18;100763.53;5056183;28;70410;-48
2023/07/06 11:43:55;;;;;;;4.60;4.38;;;;;;;31.23;68.16;100613.66;5042426;28;65801;-48
2023/07/06 11:46:37;;;;;;;4.47;4.20;;;;;;;31.54;68.12;100666.88;5062257;28;69662;-48
2023/07/06 11:49:31;;;;;;;5.00;4.60;;;;;;;32.03;68.40;100760.69;5059193;28;66232;-49
2023/07/06 11:52:05;;;;;;;5.22;4.82;;;;;;;32.15;68.07;100768.03;5058757;28;70533;-48
2023/07/06 11:54:51;;;;;;;5.15;4.78;;;;;;;32.15;68.09;100760.75;5059952;28;67108;-48
2023/07/06 11:57:31;;;;;;;5.35;4.95;;;;;;;31.57;68.08;100680.81;5060205;28;70853;-49
2023/07/06 12:03:08;;;;;;;4.93;4.63;;;;;;;31.87;68.36;100745.03;5057517;28;70725;-48
2023/07/06 12:05:49;;;;;;;5.80;5.25;;;;;;;31.06;68.19;100608.88;5063633;28;66560;-52
2023/07/06 12:08:36;;;;;;;5.63;5.33;;;;;;;32.01;68.30;100773.69;5062884;28;69760;-49
2023/07/06 12:11:16;;;;;;;5.82;5.43;;;;;;;31.31;68.34;100657.53;5063243;28;65481;-49
2023/07/06 12:13:52;;;;;;;5.40;5.07;;;;;;;31.99;68.46;100775.78;5057959;28;69759;-50